createdAt,value
2019-06-01T00:02:17.875Z,88.20
2019-06-01T00:04:45.293Z,88.30
2019-06-01T00:07:13.187Z,88.20
2019-06-01T00:09:41.161Z,88.10
2019-06-01T00:12:08.258Z,88.20
2019-06-01T00:14:35.116Z,88.20
2019-06-01T00:17:02.580Z,88.20
2019-06-01T00:19:29.448Z,88.30
2019-06-01T00:21:56.660Z,88.20
2019-06-01T00:24:24.200Z,88.40
2019-06-01T00:26:52.455Z,88.40
2019-06-01T00:29:19.306Z,88.00
2019-06-01T00:31:47.908Z,87.90
2019-06-01T00:34:15.584Z,87.70
2019-06-01T00:36:43.545Z,87.60
2019-06-01T00:39:10.619Z,87.60
2019-06-01T00:41:38.304Z,87.70
2019-06-01T00:44:05.285Z,88.00
2019-06-01T00:46:33.233Z,88.10
2019-06-01T00:49:00.188Z,88.10
2019-06-01T00:51:28.776Z,87.80
2019-06-01T00:53:55.656Z,87.60
2019-06-01T00:56:23.087Z,87.50
2019-06-01T00:58:50.331Z,87.80
2019-06-01T01:01:17.179Z,87.80
2019-06-01T01:03:46.058Z,88.00
2019-06-01T01:06:13.240Z,87.90
2019-06-01T01:08:41.180Z,87.70
2019-06-01T01:11:09.026Z,87.70
2019-06-01T01:13:37.430Z,87.90
2019-06-01T01:16:05.024Z,87.70
2019-06-01T01:18:32.807Z,87.60
2019-06-01T01:20:59.836Z,87.60
2019-06-01T01:23:27.511Z,87.80
2019-06-01T01:25:55.152Z,87.60
2019-06-01T01:28:24.000Z,87.80
2019-06-01T01:31:03.085Z,87.90
2019-06-01T01:33:22.000Z,88.00
2019-06-01T01:35:49.742Z,87.90
2019-06-01T01:38:16.760Z,87.90
2019-06-01T01:40:44.272Z,88.10
2019-06-01T01:43:11.140Z,88.10
2019-06-01T01:45:38.330Z,87.80
2019-06-01T01:48:05.380Z,87.70
2019-06-01T01:50:32.777Z,87.50
2019-06-01T01:53:00.019Z,87.80
2019-06-01T01:55:27.141Z,87.70
2019-06-01T01:57:55.234Z,87.60
2019-06-01T02:00:36.588Z,87.60
2019-06-01T02:03:04.940Z,87.80
2019-06-01T02:05:32.659Z,87.60
2019-06-01T02:08:01.858Z,87.50
2019-06-01T02:10:29.555Z,87.50
2019-06-01T02:12:57.554Z,87.70
2019-06-01T02:15:25.267Z,87.60
2019-06-01T02:17:52.418Z,87.50
2019-06-01T02:20:22.022Z,87.50
2019-06-01T02:22:49.443Z,87.70
2019-06-01T02:25:18.426Z,87.70
2019-06-01T02:27:45.775Z,87.80
2019-06-01T02:30:14.922Z,88.00
2019-06-01T02:32:42.632Z,87.90
2019-06-01T02:35:10.025Z,87.80
2019-06-01T02:37:38.780Z,87.60
2019-06-01T02:40:07.024Z,87.50
2019-06-01T02:42:34.325Z,87.40
2019-06-01T02:45:02.217Z,87.50
2019-06-01T02:47:30.835Z,87.60
2019-06-01T02:49:59.383Z,88.00
2019-06-01T02:52:26.364Z,88.70
2019-06-01T02:54:55.614Z,88.50
2019-06-01T02:57:23.907Z,88.30
2019-06-01T02:59:51.163Z,88.00
2019-06-01T03:02:19.003Z,87.80
2019-06-01T03:04:47.104Z,88.00
2019-06-01T03:07:15.477Z,88.00
2019-06-01T03:09:43.997Z,88.00
2019-06-01T03:12:12.160Z,87.90
2019-06-01T03:14:42.998Z,88.10
2019-06-01T03:17:13.380Z,87.90
2019-06-01T03:19:44.539Z,87.90
2019-06-01T03:22:14.247Z,88.00
2019-06-01T03:24:44.675Z,88.10
2019-06-01T03:27:14.307Z,88.60
2019-06-01T03:29:46.096Z,88.60
2019-06-01T03:32:33.188Z,88.50
2019-06-01T03:34:42.400Z,88.10
2019-06-01T03:37:10.005Z,88.20
2019-06-01T03:39:38.840Z,88.20
2019-06-01T03:42:07.852Z,88.20
2019-06-01T03:44:35.412Z,88.00
2019-06-01T03:47:03.859Z,88.10
2019-06-01T03:49:31.471Z,88.10
2019-06-01T03:51:58.644Z,88.40
2019-06-01T03:54:25.833Z,88.30
2019-06-01T03:56:53.230Z,88.20
2019-06-01T03:59:20.439Z,88.10
2019-06-01T04:01:47.908Z,88.10
2019-06-01T04:04:14.862Z,88.10
2019-06-01T04:06:42.648Z,88.20
2019-06-01T04:09:10.173Z,88.20
2019-06-01T04:11:37.362Z,88.20
2019-06-01T04:14:05.605Z,88.10
2019-06-01T04:16:33.083Z,88.80
2019-06-01T04:19:01.679Z,88.40
2019-06-01T04:21:29.632Z,88.50
2019-06-01T04:23:57.875Z,88.60
2019-06-01T04:26:25.455Z,88.60
2019-06-01T04:28:52.712Z,88.70
2019-06-01T04:31:20.028Z,88.80
2019-06-01T04:33:47.720Z,89.20
2019-06-01T04:36:15.339Z,89.30
2019-06-01T04:38:42.291Z,89.50
2019-06-01T04:41:11.879Z,89.80
2019-06-01T04:43:38.959Z,90.30
2019-06-01T04:46:06.552Z,90.10
2019-06-01T04:48:35.322Z,90.30
2019-06-01T04:51:03.068Z,90.40
2019-06-01T04:53:30.324Z,90.40
2019-06-01T04:55:57.648Z,90.50
2019-06-01T04:58:24.499Z,90.50
2019-06-01T05:00:52.048Z,90.80
2019-06-01T05:03:19.615Z,90.90
2019-06-01T05:05:47.353Z,91.10
2019-06-01T05:08:15.612Z,91.20
2019-06-01T05:10:43.891Z,91.30
2019-06-01T05:13:11.523Z,91.30
2019-06-01T05:15:39.286Z,91.30
2019-06-01T05:18:07.948Z,91.40
2019-06-01T05:20:35.848Z,91.50
2019-06-01T05:23:03.767Z,91.60
2019-06-01T05:25:32.343Z,91.80
2019-06-01T05:27:59.488Z,91.90
2019-06-01T05:30:26.540Z,92.00
2019-06-01T05:32:54.298Z,92.00
2019-06-01T05:35:22.523Z,92.00
2019-06-01T05:37:49.371Z,92.10
2019-06-01T05:40:16.698Z,92.20
2019-06-01T05:42:43.987Z,92.30
2019-06-01T05:45:11.393Z,92.20
2019-06-01T05:47:38.343Z,92.30
2019-06-01T05:50:06.971Z,92.40
2019-06-01T05:52:34.099Z,92.50
2019-06-01T05:55:01.806Z,92.50
2019-06-01T05:57:28.875Z,92.60
2019-06-01T05:59:56.591Z,92.70
2019-06-01T06:02:24.256Z,92.60
2019-06-01T06:04:54.068Z,92.50
2019-06-01T06:07:21.147Z,92.60
2019-06-01T06:09:48.453Z,92.70
2019-06-01T06:12:17.321Z,92.60
2019-06-01T06:14:44.980Z,92.70
2019-06-01T06:17:14.575Z,92.90
2019-06-01T06:19:41.983Z,93.00
2019-06-01T06:22:09.444Z,92.90
2019-06-01T06:24:36.879Z,92.70
2019-06-01T06:27:04.659Z,92.60
2019-06-01T06:29:32.327Z,92.70
2019-06-01T06:31:59.712Z,92.80
2019-06-01T06:34:26.828Z,92.90
2019-06-01T06:36:54.500Z,92.80
2019-06-01T06:39:24.107Z,92.80
2019-06-01T06:41:52.100Z,92.80
2019-06-01T06:44:20.529Z,92.70
2019-06-01T06:46:48.142Z,92.80
2019-06-01T06:49:15.082Z,92.80
2019-06-01T06:51:42.897Z,92.80
2019-06-01T06:54:14.459Z,92.80
2019-06-01T06:56:40.638Z,92.80
2019-06-01T06:59:11.600Z,92.70
2019-06-01T07:01:37.204Z,92.70
2019-06-01T07:04:12.556Z,92.70
2019-06-01T07:06:35.172Z,92.70
2019-06-01T07:09:02.831Z,92.80
2019-06-01T07:11:31.577Z,92.80
2019-06-01T07:13:58.857Z,92.80
2019-06-01T07:16:25.853Z,92.90
2019-06-01T07:18:53.421Z,92.90
2019-06-01T07:21:22.239Z,93.00
2019-06-01T07:23:49.824Z,93.10
2019-06-01T07:26:16.897Z,92.90
2019-06-01T07:28:44.930Z,93.00
2019-06-01T07:31:11.904Z,92.90
2019-06-01T07:33:40.055Z,92.90
2019-06-01T07:36:07.104Z,92.90
2019-06-01T07:38:34.436Z,92.70
2019-06-01T07:41:01.681Z,93.00
2019-06-01T07:43:28.993Z,93.20
2019-06-01T07:45:56.149Z,92.90
2019-06-01T07:48:24.883Z,93.00
2019-06-01T07:50:52.796Z,93.00
2019-06-01T07:53:21.034Z,92.90
2019-06-01T07:55:48.416Z,93.00
2019-06-01T07:58:15.286Z,93.00
2019-06-01T08:00:43.258Z,93.10
2019-06-01T08:03:10.979Z,93.30
2019-06-01T08:05:38.252Z,93.10
2019-06-01T08:08:05.300Z,93.10
2019-06-01T08:10:33.801Z,93.10
2019-06-01T08:13:01.012Z,93.10
2019-06-01T08:15:29.825Z,93.10
2019-06-01T08:17:57.904Z,93.10
2019-06-01T08:20:26.424Z,93.20
2019-06-01T08:22:53.684Z,93.10
2019-06-01T08:25:20.543Z,93.10
2019-06-01T08:27:47.504Z,93.10
2019-06-01T08:30:16.096Z,93.10
2019-06-01T08:32:43.071Z,93.10
2019-06-01T08:35:11.435Z,93.10
2019-06-01T08:37:39.235Z,93.00
2019-06-01T08:40:07.300Z,93.10
2019-06-01T08:42:35.576Z,93.10
2019-06-01T08:45:03.871Z,93.10
2019-06-01T08:47:31.975Z,93.00
2019-06-01T08:49:59.688Z,93.00
2019-06-01T08:52:28.047Z,93.00
2019-06-01T08:54:55.591Z,93.00
2019-06-01T08:57:24.196Z,93.10
2019-06-01T08:59:51.464Z,93.00
2019-06-01T09:02:19.956Z,93.10
2019-06-01T09:04:47.637Z,92.90
2019-06-01T09:07:15.117Z,93.00
2019-06-01T09:09:43.868Z,93.10
2019-06-01T09:12:10.833Z,93.00
2019-06-01T09:14:38.206Z,92.90
2019-06-01T09:17:05.565Z,92.80
2019-06-01T09:19:33.635Z,92.90
2019-06-01T09:22:00.672Z,92.80
2019-06-01T09:24:29.726Z,92.90
2019-06-01T09:26:57.731Z,92.90
2019-06-01T09:29:25.821Z,92.90
2019-06-01T09:31:53.664Z,93.00
2019-06-01T09:34:21.922Z,92.90
2019-06-01T09:36:48.767Z,92.70
2019-06-01T09:39:16.556Z,92.70
2019-06-01T09:41:43.523Z,92.70
2019-06-01T09:44:10.908Z,92.70
2019-06-01T09:46:38.283Z,92.70
2019-06-01T09:49:05.992Z,92.70
2019-06-01T09:51:35.700Z,92.60
2019-06-01T09:54:03.536Z,92.60
2019-06-01T09:56:31.708Z,92.50
2019-06-01T09:59:00.304Z,92.40
2019-06-01T10:01:28.155Z,92.30
2019-06-01T10:03:55.259Z,92.20
2019-06-01T10:06:22.752Z,92.10
2019-06-01T10:08:51.180Z,91.90
2019-06-01T10:11:18.487Z,91.60
2019-06-01T10:13:46.145Z,91.60
2019-06-01T10:16:14.735Z,91.40
2019-06-01T10:18:42.994Z,91.50
2019-06-01T10:21:10.106Z,91.10
2019-06-01T10:23:38.352Z,91.30
2019-06-01T10:26:05.683Z,91.20
2019-06-01T10:28:33.411Z,91.10
2019-06-01T10:31:01.135Z,90.80
2019-06-01T10:33:28.515Z,90.80
2019-06-01T10:35:55.791Z,91.00
2019-06-01T10:38:23.433Z,90.70
2019-06-01T10:40:50.742Z,90.50
2019-06-01T10:43:18.066Z,90.40
2019-06-01T10:45:45.715Z,90.30
2019-06-01T10:48:12.657Z,90.10
2019-06-01T10:50:40.609Z,90.00
2019-06-01T10:53:08.087Z,89.90
2019-06-01T10:55:36.162Z,89.60
2019-06-01T10:58:03.676Z,89.40
2019-06-01T11:00:38.681Z,89.50
2019-06-01T11:03:00.079Z,89.30
2019-06-01T11:05:27.218Z,89.20
2019-06-01T11:07:54.349Z,89.20
2019-06-01T11:10:21.756Z,88.80
2019-06-01T11:12:49.239Z,88.80
2019-06-01T11:15:17.086Z,88.50
2019-06-01T11:17:44.151Z,88.70
2019-06-01T11:20:11.804Z,88.20
2019-06-01T11:22:41.560Z,88.00
2019-06-01T11:25:09.012Z,87.90
2019-06-01T11:27:37.752Z,87.40
2019-06-01T11:30:06.688Z,87.60
2019-06-01T11:32:35.910Z,87.00
2019-06-01T11:35:05.595Z,86.80
2019-06-01T11:37:34.207Z,85.90
2019-06-01T11:40:01.404Z,85.70
2019-06-01T11:42:28.632Z,85.90
2019-06-01T11:44:56.128Z,85.90
2019-06-01T11:47:23.235Z,85.90
2019-06-01T11:49:51.711Z,85.90
2019-06-01T11:52:19.212Z,85.50
2019-06-01T11:54:47.404Z,86.30
2019-06-01T11:57:15.054Z,85.40
2019-06-01T11:59:43.587Z,85.30
2019-06-01T12:02:11.079Z,85.20
2019-06-01T12:04:38.284Z,84.90
2019-06-01T12:07:17.163Z,84.80
2019-06-01T12:09:35.756Z,84.70
2019-06-01T12:12:02.886Z,84.50
2019-06-01T12:14:29.711Z,84.10
2019-06-01T12:16:57.206Z,84.30
2019-06-01T12:19:24.039Z,84.00
2019-06-01T12:21:51.141Z,83.70
2019-06-01T12:24:25.356Z,83.30
2019-06-01T12:26:49.959Z,83.10
2019-06-01T12:29:17.692Z,83.00
2019-06-01T12:31:46.420Z,83.10
2019-06-01T12:34:13.863Z,82.80
2019-06-01T12:36:42.634Z,82.60
2019-06-01T12:39:11.512Z,82.60
2019-06-01T12:41:39.721Z,82.30
2019-06-01T12:44:11.879Z,82.30
2019-06-01T12:46:40.079Z,82.10
2019-06-01T12:49:07.403Z,81.90
2019-06-01T12:51:36.478Z,81.70
2019-06-01T12:54:04.531Z,81.40
2019-06-01T12:56:32.717Z,81.30
2019-06-01T12:59:00.328Z,81.00
2019-06-01T13:01:29.036Z,80.90
2019-06-01T13:03:56.423Z,80.90
2019-06-01T13:06:23.368Z,80.80
2019-06-01T13:08:51.705Z,80.60
2019-06-01T13:11:19.248Z,80.60
2019-06-01T13:13:47.585Z,80.70
2019-06-01T13:16:15.040Z,80.80
2019-06-01T13:18:45.305Z,80.90
2019-06-01T13:21:12.393Z,80.90
2019-06-01T13:23:41.340Z,81.00
2019-06-01T13:26:09.720Z,81.10
2019-06-01T13:28:38.596Z,81.30
2019-06-01T13:31:06.610Z,81.30
2019-06-01T13:33:33.799Z,81.30
2019-06-01T13:36:00.644Z,81.30
2019-06-01T13:38:29.767Z,81.40
2019-06-01T13:40:56.620Z,81.50
2019-06-01T13:43:23.635Z,81.50
2019-06-01T13:45:52.163Z,81.30
2019-06-01T13:48:19.192Z,81.50
2019-06-01T13:50:47.820Z,81.80
2019-06-01T13:53:14.971Z,81.70
2019-06-01T13:55:43.836Z,81.60
2019-06-01T13:58:11.888Z,81.70
2019-06-01T14:00:38.987Z,81.70
2019-06-01T14:03:06.757Z,81.80
2019-06-01T14:05:34.601Z,81.90
2019-06-01T14:08:02.767Z,81.80
2019-06-01T14:10:29.828Z,81.90
2019-06-01T14:12:57.047Z,81.90
2019-06-01T14:15:24.523Z,82.00
2019-06-01T14:17:52.303Z,82.10
2019-06-01T14:20:19.884Z,82.20
2019-06-01T14:22:48.055Z,82.10
2019-06-01T14:25:15.705Z,82.00
2019-06-01T14:27:43.478Z,82.00
2019-06-01T14:30:14.320Z,82.10
2019-06-01T14:32:42.014Z,82.10
2019-06-01T14:35:09.746Z,82.20
2019-06-01T14:37:37.270Z,82.30
2019-06-01T14:40:04.792Z,82.30
2019-06-01T14:42:32.250Z,82.30
2019-06-01T14:44:59.660Z,82.50
2019-06-01T14:47:26.583Z,82.40
2019-06-01T14:49:54.032Z,82.20
2019-06-01T14:52:21.948Z,82.00
2019-06-01T14:54:50.248Z,82.00
2019-06-01T14:57:17.883Z,82.00
2019-06-01T14:59:45.942Z,82.00
2019-06-01T15:02:12.928Z,81.90
2019-06-01T15:04:40.192Z,82.00
2019-06-01T15:07:07.477Z,82.00
2019-06-01T15:09:34.851Z,81.90
2019-06-01T15:12:01.902Z,81.90
2019-06-01T15:14:29.896Z,81.90
2019-06-01T15:16:57.973Z,81.90
2019-06-01T15:19:25.609Z,82.00
2019-06-01T15:21:54.109Z,81.80
2019-06-01T15:24:22.981Z,81.70
2019-06-01T15:26:52.301Z,81.80
2019-06-01T15:29:19.567Z,81.80
2019-06-01T15:31:47.172Z,81.90
2019-06-01T15:34:15.047Z,82.10
2019-06-01T15:36:42.020Z,82.00
2019-06-01T15:39:23.616Z,81.80
2019-06-01T15:41:39.240Z,81.80
2019-06-01T15:44:06.585Z,81.70
2019-06-01T15:46:33.845Z,81.60
2019-06-01T15:49:01.936Z,81.70
2019-06-01T15:51:29.950Z,81.40
2019-06-01T15:53:57.243Z,81.60
2019-06-01T15:56:24.471Z,82.20
2019-06-01T15:58:54.963Z,81.50
2019-06-01T16:01:21.548Z,81.40
2019-06-01T16:03:48.399Z,81.40
2019-06-01T16:06:16.048Z,81.50
2019-06-01T16:08:43.348Z,81.50
2019-06-01T16:11:11.004Z,81.60
2019-06-01T16:13:38.980Z,81.50
2019-06-01T16:16:08.270Z,81.30
2019-06-01T16:18:37.954Z,82.00
2019-06-01T16:21:06.850Z,81.50
2019-06-01T16:23:49.397Z,81.40
2019-06-01T16:26:15.778Z,81.20
2019-06-01T16:28:40.146Z,81.20
2019-06-01T16:31:10.026Z,81.10
2019-06-01T16:33:39.310Z,80.80
2019-06-01T16:36:09.898Z,80.90
2019-06-01T16:38:38.534Z,80.80
2019-06-01T16:41:09.446Z,80.90
2019-06-01T16:43:37.306Z,81.00
2019-06-01T16:46:05.874Z,80.70
2019-06-01T16:48:33.623Z,80.90
2019-06-01T16:51:01.819Z,80.90
2019-06-01T16:53:30.008Z,80.40
2019-06-01T16:55:58.187Z,80.80
2019-06-01T16:58:25.777Z,80.70
2019-06-01T17:00:53.131Z,80.50
2019-06-01T17:03:20.936Z,80.40
2019-06-01T17:05:47.851Z,80.60
2019-06-01T17:08:15.900Z,80.60
2019-06-01T17:10:43.212Z,80.60
2019-06-01T17:13:10.068Z,80.50
2019-06-01T17:15:38.419Z,80.60
2019-06-01T17:18:09.659Z,80.60
2019-06-01T17:20:40.715Z,80.60
2019-06-01T17:23:24.253Z,80.80
2019-06-01T17:25:36.981Z,80.70
2019-06-01T17:28:05.227Z,80.70
2019-06-01T17:30:32.643Z,80.70
2019-06-01T17:33:02.229Z,80.60
2019-06-01T17:35:29.888Z,80.60
2019-06-01T17:37:58.776Z,80.70
2019-06-01T17:40:36.556Z,80.80
2019-06-01T17:42:55.476Z,80.70
2019-06-01T17:45:23.008Z,80.70
2019-06-01T17:47:51.809Z,80.60
2019-06-01T17:50:20.020Z,80.70
2019-06-01T17:52:46.843Z,80.70
2019-06-01T17:55:31.153Z,80.70
2019-06-01T17:58:01.384Z,80.90
2019-06-01T18:00:30.995Z,80.70
2019-06-01T18:02:58.189Z,80.70
2019-06-01T18:05:26.427Z,80.80
2019-06-01T18:07:54.066Z,80.70
2019-06-01T18:10:22.920Z,80.70
2019-06-01T18:12:49.864Z,80.90
2019-06-01T18:15:17.695Z,80.90
2019-06-01T18:17:46.040Z,81.00
2019-06-01T18:20:13.409Z,81.00
2019-06-01T18:22:41.628Z,81.10
2019-06-01T18:25:11.011Z,81.00
2019-06-01T18:27:39.967Z,81.30
2019-06-01T18:30:08.868Z,81.20
2019-06-01T18:32:37.062Z,81.20
2019-06-01T18:35:05.464Z,81.20
2019-06-01T18:37:33.479Z,81.40
2019-06-01T18:40:01.807Z,81.60
2019-06-01T18:42:29.558Z,81.70
2019-06-01T18:44:57.848Z,81.90
2019-06-01T18:47:32.306Z,82.10
2019-06-01T18:49:55.417Z,82.50
2019-06-01T18:52:23.476Z,83.20
2019-06-01T18:54:50.937Z,83.50
2019-06-01T18:57:21.422Z,83.80
2019-06-01T18:59:47.352Z,84.20
2019-06-01T19:02:14.612Z,84.50
2019-06-01T19:04:45.087Z,84.80
2019-06-01T19:07:13.376Z,85.00
2019-06-01T19:09:41.351Z,85.30
2019-06-01T19:12:08.929Z,85.60
2019-06-01T19:14:36.280Z,85.70
2019-06-01T19:17:03.453Z,86.00
2019-06-01T19:19:30.622Z,86.20
2019-06-01T19:21:57.771Z,86.30
2019-06-01T19:24:26.116Z,86.40
2019-06-01T19:26:53.964Z,86.60
2019-06-01T19:29:22.596Z,86.70
2019-06-01T19:31:50.556Z,86.90
2019-06-01T19:34:18.217Z,87.00
2019-06-01T19:36:46.256Z,87.00
2019-06-01T19:39:13.381Z,86.90
2019-06-01T19:41:45.252Z,87.00
2019-06-01T19:44:11.467Z,87.10
2019-06-01T19:46:39.104Z,87.20
2019-06-01T19:49:06.358Z,87.20
2019-06-01T19:51:34.152Z,87.10
2019-06-01T19:54:01.623Z,87.20
2019-06-01T19:56:28.684Z,87.30
2019-06-01T19:58:56.215Z,87.20
2019-06-01T20:01:24.339Z,87.10
2019-06-01T20:03:52.072Z,87.10
2019-06-01T20:06:18.986Z,87.00
2019-06-01T20:08:46.511Z,87.00
2019-06-01T20:11:15.103Z,87.00
2019-06-01T20:13:42.567Z,86.90
2019-06-01T20:16:10.717Z,86.90
2019-06-01T20:18:38.607Z,86.80
2019-06-01T20:21:07.236Z,86.80
2019-06-01T20:23:34.147Z,86.80
2019-06-01T20:26:01.808Z,86.70
2019-06-01T20:28:29.420Z,86.70
2019-06-01T20:30:57.252Z,86.70
2019-06-01T20:33:24.671Z,86.70
2019-06-01T20:35:53.775Z,86.80
2019-06-01T20:38:23.041Z,86.60
2019-06-01T20:40:50.681Z,86.50
2019-06-01T20:43:18.800Z,86.50
2019-06-01T20:45:46.706Z,86.30
2019-06-01T20:48:14.998Z,86.30
2019-06-01T20:50:42.320Z,86.40
2019-06-01T20:53:10.004Z,86.10
2019-06-01T20:55:38.744Z,86.20
2019-06-01T20:58:06.030Z,86.10
2019-06-01T21:00:33.356Z,86.00
2019-06-01T21:03:01.022Z,85.90
2019-06-01T21:05:29.291Z,85.60
2019-06-01T21:07:57.836Z,85.50
2019-06-01T21:10:25.440Z,85.40
2019-06-01T21:12:52.536Z,85.40
2019-06-01T21:15:21.324Z,85.30
2019-06-01T21:17:50.178Z,85.20
2019-06-01T21:20:23.313Z,85.20
2019-06-01T21:22:46.331Z,85.10
2019-06-01T21:25:14.765Z,84.90
2019-06-01T21:27:43.056Z,85.00
2019-06-01T21:30:10.857Z,84.80
2019-06-01T21:32:37.912Z,84.60
2019-06-01T21:35:05.672Z,84.70
2019-06-01T21:37:32.760Z,84.50
2019-06-01T21:40:02.262Z,84.30
2019-06-01T21:42:29.144Z,84.10
2019-06-01T21:44:56.905Z,84.10
2019-06-01T21:47:25.862Z,84.20
2019-06-01T21:49:55.293Z,84.30
2019-06-01T21:52:22.612Z,84.40
2019-06-01T21:54:51.600Z,84.40
2019-06-01T21:57:20.161Z,84.40
2019-06-01T21:59:48.235Z,84.50
2019-06-01T22:02:16.746Z,84.30
2019-06-01T22:04:44.349Z,84.60
2019-06-01T22:07:11.808Z,84.50
2019-06-01T22:09:39.191Z,84.50
2019-06-01T22:12:06.189Z,84.50
2019-06-01T22:14:33.366Z,84.50
2019-06-01T22:17:00.708Z,84.50
2019-06-01T22:19:28.168Z,84.50
2019-06-01T22:21:55.813Z,84.40
2019-06-01T22:24:23.851Z,84.30
2019-06-01T22:26:51.183Z,84.30
2019-06-01T22:29:18.476Z,84.40
2019-06-01T22:31:45.556Z,84.40
2019-06-01T22:34:13.871Z,84.10
2019-06-01T22:36:41.267Z,84.10
2019-06-01T22:39:09.168Z,84.10
2019-06-01T22:41:36.504Z,84.10
2019-06-01T22:44:03.756Z,84.10
2019-06-01T22:46:32.777Z,84.00
2019-06-01T22:48:59.816Z,83.90
2019-06-01T22:51:27.120Z,84.00
2019-06-01T22:53:54.487Z,84.00
2019-06-01T22:56:21.462Z,84.10
2019-06-01T22:58:48.279Z,84.10
2019-06-01T23:01:15.480Z,83.90
2019-06-01T23:03:43.214Z,83.80
2019-06-01T23:06:10.568Z,83.90
2019-06-01T23:08:37.702Z,83.70
2019-06-01T23:11:04.973Z,83.60
2019-06-01T23:13:32.607Z,83.60
2019-06-01T23:15:59.563Z,83.70
2019-06-01T23:18:27.940Z,83.80
2019-06-01T23:20:55.189Z,83.80
2019-06-01T23:23:23.885Z,83.80
2019-06-01T23:25:51.488Z,83.80
2019-06-01T23:28:19.013Z,83.80
2019-06-01T23:30:46.364Z,83.90
2019-06-01T23:33:13.299Z,83.70
2019-06-01T23:35:40.464Z,83.80
2019-06-01T23:38:07.585Z,83.60
2019-06-01T23:40:34.531Z,83.60
2019-06-01T23:43:01.622Z,83.60
2019-06-01T23:45:29.185Z,83.50
2019-06-01T23:47:56.335Z,84.10
2019-06-01T23:50:23.215Z,83.40
2019-06-01T23:52:50.670Z,83.50
2019-06-01T23:55:18.085Z,83.50
2019-06-01T23:57:45.323Z,83.30
